Latest Weather Observations for PWS A

IDT60801

Issued at 9:31 am EST Tuesday 23 July 2024 (issued every 10 minutes, with the page automatically refreshed every 10 minutes)

About weather observations | Map of weather stations | Latest weather observations for TAS | Other Formats
Station Details ID: 250092 Name: TAS PARKS WILDLIFE PORTABLE A Lat: -41.05 Lon: 144.67 Height: 323.0 m

Portable automatic weather stations (PAWS) are operated by other organisations, such as Fire and Emergency Services, and are included here by agreement. Portable stations may be deployed to a location for a short period and their location may be subject to change without notice. Wind observations from these stations are provided from heights of either three (3) or ten (10) metres above ground level (AGL).

Data from the previous 72 hours. | See also: Recent months for locations in Tasmania
Date/Time
EST
Temp
°C
App
Temp
°C
Dew
Point
°C
Rel
Hum
%
Delta-T
°C
Wind Press
QNH
hPa
Press
MSL
hPa
Rain since
9am
mm
Dir  Spd
km/h
Gust
km/h
Spd
kts
Gust
kts
22/09:30pm 13.3 11.2 12.4 94 0.5 WNW 15 17 8 9 - - 0.0
22/09:00pm 13.5 11.8 12.5 94 0.6 WNW 13 19 7 10 - - 0.0
22/08:30pm 13.5 12.2 12.5 94 0.6 WNW 11 13 6 7 - - 0.0
22/08:00pm 13.5 11.8 12.3 92 0.7 NW 13 19 7 10 - - 0.0
22/07:30pm 13.5 11.8 12.3 92 0.7 NW 13 15 7 8 - - 0.0
22/07:00pm 13.4 11.6 12.2 92 0.7 NW 13 15 7 8 - - 0.0
22/06:30pm 13.3 11.9 12.1 92 0.7 NW 11 13 6 7 - - 0.0
22/06:00pm 13.3 11.9 12.1 92 0.7 NW 11 15 6 8 - - 0.0
22/05:30pm 13.2 11.8 12.1 93 0.6 NW 11 11 6 6 - - 0.0
22/05:00pm 13.3 11.9 12.2 93 0.6 NW 11 15 6 8 - - 0.0
22/04:30pm 13.4 12.0 12.1 92 0.7 NW 11 15 6 8 - - 0.0
22/04:00pm 13.5 12.1 12.1 91 0.8 NW 11 15 6 8 - - 0.0
22/03:30pm 13.9 12.9 12.4 91 0.8 NW 9 13 5 7 - - 0.0
22/03:00pm 14.0 13.0 12.3 89 0.9 NW 9 11 5 6 - - 0.0
22/02:30pm 14.1 12.7 12.2 88 1.0 NW 11 13 6 7 - - 0.0
22/02:00pm 14.1 12.7 12.1 88 1.1 WNW 11 15 6 8 - - 0.0
22/01:30pm 14.1 12.7 12.3 89 1.0 WNW 11 17 6 9 - - 0.0
22/01:00pm 14.5 13.2 12.4 87 1.2 WNW 11 15 6 8 - - 0.0
22/12:30pm 14.4 13.5 12.5 88 1.1 NW 9 15 5 8 - - 0.0
22/12:00pm 14.4 13.5 12.6 89 1.0 WNW 9 13 5 7 - - 0.0
22/11:30am 14.0 13.0 12.3 89 0.9 NW 9 13 5 7 - - 0.0
22/11:00am 13.9 12.5 12.3 90 0.9 NW 11 15 6 8 - - 0.0
22/10:30am 14.2 13.2 12.2 88 1.1 NW 9 11 5 6 - - 0.0
22/10:00am 13.1 12.5 11.7 91 0.8 WNW 6 7 3 4 - - 0.0
22/09:30am 12.8 11.7 11.9 94 0.5 WNW 9 13 5 7 - - 0.0
22/09:00am 12.3 11.5 11.8 97 0.3 NW 7 7 4 4 - - 43.2
22/08:30am 11.8 10.9 11.4 97 0.2 WNW 7 9 4 5 - - 43.2
22/08:00am 11.2 10.2 11.0 99 0.1 NNW 7 7 4 4 - - 43.2
22/07:30am 11.1 10.2 10.8 98 0.2 NNW 6 6 3 3 - - 43.2
22/07:00am 11.3 10.5 10.9 97 0.2 NNW 6 6 3 3 - - 43.2
22/06:30am 11.5 10.7 11.1 97 0.2 WNW 6 7 3 4 - - 43.2
22/06:00am 12.0 11.2 11.6 97 0.2 WNW 7 9 4 5 - - 43.2
22/05:30am 12.2 10.3 11.7 97 0.3 WNW 13 17 7 9 - - 43.2
22/05:00am 12.3 10.8 11.8 97 0.3 WNW 11 13 6 7 - - 43.0
22/04:30am 12.2 11.1 11.8 97 0.2 WNW 9 11 5 6 - - 43.0
22/04:00am 12.2 11.1 11.9 98 0.2 WNW 9 11 5 6 - - 42.8
22/03:30am 12.3 11.6 12.0 98 0.2 WNW 7 9 4 5 - - 42.2
22/03:00am 12.1 11.3 11.7 97 0.2 NW 7 7 4 4 - - 42.0
22/02:30am 12.2 11.0 11.7 97 0.3 WNW 9 13 5 7 - - 42.0
22/02:00am 12.2 10.7 11.8 97 0.2 WNW 11 11 6 6 - - 42.0
22/01:30am 12.0 10.8 11.6 97 0.2 WNW 9 11 5 6 - - 42.0
22/01:00am 11.7 10.0 11.3 97 0.2 W 11 17 6 9 - - 38.6
22/12:30am 12.7 11.7 12.4 98 0.2 W 9 11 5 6 - - 30.2
22/12:00am 12.6 12.0 12.2 97 0.2 WNW 7 11 4 6 - - 25.6
 
Date/Time
EST
Temp
°C
App
Temp
°C
Dew
Point
°C
Rel
Hum
%
Delta-T
°C
Wind Press
QNH
hPa
Press
MSL
hPa
Rain since
9am
mm
Dir  Spd
km/h
Gust
km/h
Spd
kts
Gust
kts
21/11:30pm 12.5 11.8 12.0 97 0.3 W 7 9 4 5 - - 25.0
21/11:00pm 12.5 11.0 11.8 95 0.4 WNW 11 15 6 8 - - 24.2
21/10:30pm 12.7 10.9 12.1 96 0.3 WNW 13 15 7 8 - - 24.0
21/10:00pm 12.6 10.8 12.0 96 0.3 WNW 13 15 7 8 - - 24.0
21/09:30pm 12.5 10.6 11.8 95 0.4 WNW 13 15 7 8 - - 24.0
21/09:00pm 12.4 10.5 11.8 96 0.3 WNW 13 17 7 9 - - 24.0
21/08:30pm 12.5 10.7 12.1 97 0.2 WNW 13 17 7 9 - - 24.0
21/08:00pm 12.0 10.8 11.6 97 0.2 WNW 9 11 5 6 - - 24.0
21/07:30pm 11.7 8.7 10.8 94 0.5 WNW 17 20 9 11 - - 15.0
21/07:00pm 12.7 10.6 12.3 97 0.2 WNW 15 19 8 10 - - 12.4
21/06:30pm 12.7 11.3 12.2 97 0.3 NW 11 15 6 8 - - 11.6
21/06:00pm 12.9 11.1 12.0 94 0.5 NW 13 15 7 8 - - 9.2
21/05:30pm 12.9 10.6 11.9 94 0.5 NW 15 17 8 9 - - 9.2
21/05:00pm 12.9 11.0 11.9 94 0.5 WNW 13 19 7 10 - - 9.2
21/04:30pm 12.9 10.6 11.8 93 0.6 WNW 15 17 8 9 - - 9.2
21/04:00pm 13.3 10.7 12.1 92 0.7 WNW 17 19 9 10 - - 9.2
21/03:30pm 13.2 10.7 12.3 94 0.5 WNW 17 20 9 11 - - 9.2
21/03:00pm 13.0 10.8 12.2 95 0.4 NW 15 20 8 11 - - 9.0
21/02:30pm 13.2 11.4 12.2 94 0.5 NW 13 15 7 8 - - 8.4
21/02:00pm 13.6 11.5 12.3 92 0.7 WNW 15 17 8 9 - - 8.4
21/01:30pm 14.1 12.1 12.6 91 0.8 WNW 15 17 8 9 - - 8.4
21/01:00pm 13.7 12.1 12.8 94 0.5 WNW 13 15 7 8 - - 8.4
21/12:30pm 12.1 10.5 11.4 95 0.4 WNW 11 19 6 10 - - 7.0
21/12:00pm 13.0 11.5 11.9 93 0.6 NW 11 15 6 8 - - 0.2
21/11:30am 12.8 11.2 11.5 92 0.7 NW 11 13 6 7 - - 0.2
21/11:00am 13.3 11.7 11.6 89 0.9 NW 11 15 6 8 - - 0.0
21/10:30am 13.2 11.6 11.5 89 0.9 NW 11 15 6 8 - - 0.0
21/10:00am 12.5 10.8 11.3 92 0.6 NW 11 11 6 6 - - 0.0
21/09:30am 11.9 10.5 10.9 94 0.5 NW 9 11 5 6 - - 0.0
21/09:00am 11.3 9.7 10.2 93 0.6 NW 9 13 5 7 - - 5.2
21/08:30am 11.3 9.5 9.3 87 1.0 NW 9 11 5 6 - - 4.4
21/08:00am 11.2 9.2 8.7 84 1.3 NW 9 11 5 6 - - 4.4
21/07:30am 10.3 8.6 8.2 87 1.0 NNW 7 7 4 4 - - 4.4
21/07:00am 9.7 8.0 7.4 85 1.1 NW 6 7 3 4 - - 4.4
21/06:30am 9.9 8.0 7.4 84 1.2 NW 7 7 4 4 - - 4.4
21/06:00am 9.5 7.7 7.2 85 1.1 NW 6 7 3 4 - - 4.4
21/05:30am 9.1 7.5 6.3 82 1.3 NNW 4 6 2 3 - - 4.4
21/05:00am 9.5 7.8 6.0 79 1.6 NW 4 4 2 2 - - 4.4
21/04:30am 10.3 8.2 5.9 74 2.1 W 6 9 3 5 - - 4.4
21/04:00am 10.7 7.9 5.2 69 2.6 WSW 9 9 5 5 - - 4.4
21/03:30am 10.4 7.6 5.2 70 2.4 WSW 9 11 5 6 - - 4.4
21/03:00am 10.4 7.1 4.8 68 2.6 WSW 11 13 6 7 - - 4.4
21/02:30am 9.9 6.6 4.4 68 2.5 WSW 11 15 6 8 - - 4.4
21/02:00am 10.4 6.8 4.9 69 2.5 WSW 13 15 7 8 - - 4.4
21/01:30am 10.5 6.7 5.6 71 2.3 WSW 15 19 8 10 - - 4.4
21/01:00am 10.5 6.8 6.4 76 2.0 WSW 15 17 8 9 - - 4.4
21/12:30am 10.5 6.6 7.2 80 1.6 SW 17 20 9 11 - - 4.4
21/12:00am 10.0 6.2 7.6 85 1.2 SW 17 19 9 10 - - 4.4
 
Date/Time
EST
Temp
°C
App
Temp
°C
Dew
Point
°C
Rel
Hum
%
Delta-T
°C
Wind Press
QNH
hPa
Press
MSL
hPa
Rain since
9am
mm
Dir  Spd
km/h
Gust
km/h
Spd
kts
Gust
kts
20/11:30pm 9.6 5.7 8.8 95 0.4 SW 19 22 10 12 - - 4.4
20/11:00pm 9.8 6.7 8.8 93 0.5 SW 15 17 8 9 - - 4.2
20/10:30pm 10.5 7.4 7.3 80 1.6 SSW 13 17 7 9 - - 4.2
20/10:00pm 10.8 7.8 5.9 72 2.3 SSW 11 13 6 7 - - 4.2
20/09:30pm 10.6 6.7 5.4 70 2.4 SSW 15 19 8 10 - - 4.2
20/09:00pm 10.1 6.1 4.9 70 2.4 SSW 15 19 8 10 - - 4.2
20/08:30pm 10.2 6.1 4.2 66 2.7 SSW 15 19 8 10 - - 4.2
20/08:00pm 10.3 6.1 5.9 74 2.1 SW 17 22 9 12 - - 4.2
20/07:30pm 10.5 6.0 6.2 75 2.0 SW 19 20 10 11 - - 4.2
20/07:00pm 10.9 6.6 6.9 76 1.9 SW 19 20 10 11 - - 4.2
20/06:30pm 11.0 6.6 7.2 77 1.8 SSW 20 22 11 12 - - 4.2
20/06:00pm 11.0 6.3 7.6 79 1.7 SSW 22 24 12 13 - - 4.2
20/05:30pm 11.2 7.0 8.4 83 1.4 SSW 20 24 11 13 - - 4.2
20/05:00pm 11.4 6.5 6.8 73 2.2 SSW 22 26 12 14 - - 4.2
20/04:30pm 11.4 6.6 7.4 76 2.0 SSW 22 26 12 14 - - 4.2
20/04:00pm 10.6 6.2 7.6 82 1.5 SSW 20 24 11 13 - - 4.2
20/03:30pm 10.4 7.2 8.5 88 0.9 S 15 24 8 13 - - 2.4
20/03:00pm 9.7 7.3 8.6 93 0.5 SSW 11 19 6 10 - - 2.2
20/02:30pm 10.9 7.8 8.8 87 1.1 S 15 22 8 12 - - 1.6
20/02:00pm 10.4 7.6 8.6 89 0.9 SSW 13 15 7 8 - - 1.6
20/01:30pm 9.6 7.5 8.3 92 0.6 SSW 9 11 5 6 - - 1.4
20/01:00pm 10.9 7.8 7.1 77 1.8 SSW 13 15 7 8 - - 1.0
20/12:30pm 11.2 8.0 7.0 75 2.0 SSW 13 15 7 8 - - 1.0
20/12:00pm 11.9 9.7 7.9 76 2.0 S 9 15 5 8 - - 1.0
20/11:30am 11.2 9.6 8.6 84 1.3 S 7 9 4 5 - - 1.0
20/11:00am 9.0 7.1 7.7 91 0.6 SE 7 9 4 5 - - 1.0
20/10:30am 8.7 6.8 7.6 93 0.5 SSE 7 11 4 6 - - 1.0
20/10:00am 8.6 6.4 7.7 94 0.4 SSE 9 11 5 6 - - 1.0

Other formats

Comma delimited format used in spreadsheet applications
http://www.bom.gov.au/fwo/IDT60801/IDT60801.99140.axf

JavaScript Object Notation format (JSON) in row-major order
http://www.bom.gov.au/fwo/IDT60801/IDT60801.99140.json

Data quality

Most of these data are generated automatically and are frequently updated. Quality checks on data are not normally performed. It is possible for incorrect values to appear. Refer to information at About Latest Weather Observations and please check the disclaimer before using these data.